Caret, Virginia
Current Conditions -  °F | °C
As of 9:55 PM on Wednesday 26 Nov 2014 (Local Time) from KXSA Reporting Station
Overcast Overcast  
Wind Chill: 33°   Ceiling: 6000
Heat Index: 38°   Visibility: 10mi
Dew Point: 34°   Wind: 6mph
Humidity: 86%   Direction: 260°W
Pressure: 30.02"   Gusts: NA
Location:  37.98°N, 76.96°W
Report Text: KXSA 270255Z AUTO 26005KT 10SM SCT009 BKN060 OVC090 03/01 A3002 RMK AO2 T00320011
Loading
Personal Weather Stations






























Interactive Weather Map New forecast layout! Learn more

10-Day Weather Forecast

Advertisements
Track Severe Weather on mobile